Time;durP1;ratioP1;P1;durP2;ratioP2;P2;SDS_P1;SDS_P2;PMS_P1;PMS_P2;Temp;Humidity;BMP_temperature;BMP_pressure;BME280_temperature;BME280_humidity;BME280_pressure;Samples;Min_cycle;Max_cycle;Signal;HPM_P1;HPM_P2
2022/11/22 00:01:15;;;;;;;;;;;5.40;87.20;;;;;;9180178;19;20025;-69
2022/11/22 00:04:20;;;;;;;19.60;9.30;;;5.40;87.30;;;;;;9180168;19;19934;-69
2022/11/22 00:07:24;;;;;;;18.08;8.98;;;5.40;87.20;;;;;;9179882;19;20011;-69
2022/11/22 00:10:28;;;;;;;15.50;8.48;;;5.30;87.20;;;;;;9179316;19;20015;-70
2022/11/22 00:13:31;;;;;;;;;;;5.40;87.30;;;;;;9180089;19;20090;-69
2022/11/22 00:16:35;;;;;;;16.42;8.32;;;5.40;87.40;;;;;;9180765;19;19926;-70
2022/11/22 00:19:41;;;;;;;17.05;8.55;;;5.40;87.20;;;;;;9180505;19;20039;-69
2022/11/22 00:22:45;;;;;;;17.70;8.77;;;5.40;87.30;;;;;;9179252;19;20018;-69
2022/11/22 00:25:48;;;;;;;;;;;5.30;87.30;;;;;;9181158;19;20022;-70
2022/11/22 00:28:52;;;;;;;18.20;8.65;;;5.30;87.40;;;;;;9177956;19;20308;-69
2022/11/22 00:31:55;;;;;;;;;;;5.40;87.30;;;;;;9180845;19;20022;-70
2022/11/22 00:35:01;;;;;;;15.32;8.73;;;5.40;87.30;;;;;;9176472;19;19919;-69
2022/11/22 00:38:05;;;;;;;17.48;8.57;;;5.30;87.20;;;;;;9179517;19;20022;-69
2022/11/22 00:41:08;;;;;;;16.75;8.75;;;5.30;87.30;;;;;;9179008;19;20021;-69
2022/11/22 00:44:12;;;;;;;18.00;8.23;;;5.30;87.30;;;;;;9179045;19;20051;-69
2022/11/22 00:47:16;;;;;;;21.92;9.10;;;5.30;87.30;;;;;;9176562;19;20018;-69
2022/11/22 00:50:22;;;;;;;15.68;9.02;;;5.30;87.40;;;;;;9178975;19;20014;-69
2022/11/22 00:53:26;;;;;;;20.02;8.60;;;5.30;87.40;;;;;;9169802;19;20466;-69
2022/11/22 00:56:30;;;;;;;16.67;9.23;;;5.40;87.50;;;;;;9178499;19;20026;-69
2022/11/22 00:59:34;;;;;;;17.88;9.48;;;5.30;87.40;;;;;;9178722;19;20530;-69
2022/11/22 01:02:38;;;;;;;20.30;10.00;;;5.40;87.50;;;;;;9176801;19;20015;-70
2022/11/22 01:05:43;;;;;;;20.38;8.98;;;5.40;87.50;;;;;;9178253;19;20019;-69
2022/11/22 01:08:47;;;;;;;16.92;9.15;;;5.40;87.50;;;;;;9177879;19;20026;-69
2022/11/22 01:11:51;;;;;;;;;;;5.40;87.50;;;;;;9178671;19;20476;-70
2022/11/22 01:14:55;;;;;;;17.50;9.05;;;5.40;87.50;;;;;;9173332;19;20263;-69
2022/11/22 01:17:58;;;;;;;21.38;9.32;;;5.40;87.50;;;;;;9178003;19;20014;-69
2022/11/22 01:21:05;;;;;;;21.02;9.23;;;5.40;87.50;;;;;;9177721;19;20019;-69
2022/11/22 01:24:09;;;;;;;20.90;9.27;;;5.40;87.50;;;;;;9177394;19;20081;-70
2022/11/22 01:27:13;;;;;;;18.45;8.73;;;5.50;87.60;;;;;;9177136;19;20094;-69
2022/11/22 01:30:17;;;;;;;19.58;8.88;;;5.50;87.60;;;;;;9178013;19;20018;-69
2022/11/22 01:33:21;;;;;;;17.92;8.63;;;5.40;87.50;;;;;;9175655;19;20018;-69
2022/11/22 01:36:27;;;;;;;31.90;10.20;;;5.50;87.60;;;;;;9177551;19;20966;-69
2022/11/22 01:39:31;;;;;;;17.23;8.35;;;5.50;87.60;;;;;;9177294;19;20023;-69
2022/11/22 01:42:49;;;;;;;22.45;9.63;;;5.50;87.60;;;;;;9176008;19;20022;-70
2022/11/22 01:45:54;;;;;;;13.07;8.85;;;5.50;87.60;;;;;;9176406;19;20404;-69
2022/11/22 01:49:02;;;;;;;18.80;9.45;;;5.60;87.60;;;;;;9176523;19;20475;-69
2022/11/22 01:52:13;;;;;;;17.27;9.10;;;5.60;87.60;;;;;;9174190;19;20098;-69
2022/11/22 01:55:17;;;;;;;14.38;8.00;;;5.60;87.60;;;;;;9168113;19;20019;-69
2022/11/22 01:58:22;;;;;;;14.82;8.52;;;5.60;87.70;;;;;;9175619;19;20023;-69
2022/11/22 02:01:26;;;;;;;16.83;8.93;;;5.60;87.60;;;;;;9175905;19;20490;-69
2022/11/22 02:04:32;;;;;;;15.05;8.25;;;5.60;87.70;;;;;;9176507;19;20030;-70
2022/11/22 02:07:44;;;;;;;17.83;8.85;;;5.60;87.60;;;;;;9175244;19;20026;-69
2022/11/22 02:10:51;;;;;;;20.80;8.98;;;5.70;87.70;;;;;;9175674;19;20022;-70
2022/11/22 02:13:57;;;;;;;21.52;8.02;;;5.70;87.70;;;;;;9172087;19;20038;-69
2022/11/22 02:17:01;;;;;;;16.92;8.75;;;5.70;87.70;;;;;;9175122;19;20018;-68
2022/11/22 02:20:07;;;;;;;16.00;8.45;;;5.70;87.70;;;;;;9173321;19;20029;-69
2022/11/22 02:23:17;;;;;;;17.63;7.95;;;5.70;87.70;;;;;;9173700;19;20018;-69
2022/11/22 02:26:26;;;;;;;12.98;7.32;;;5.70;87.70;;;;;;9182622;19;20018;-69
2022/11/22 02:29:32;;;;;;;24.70;8.68;;;5.70;87.70;;;;;;9183461;19;20026;-69
2022/11/22 02:32:36;;;;;;;21.30;7.85;;;5.70;87.70;;;;;;9183444;19;20539;-69
2022/11/22 02:35:40;;;;;;;;;;;5.80;87.70;;;;;;9181283;19;20745;-69
2022/11/22 02:38:44;;;;;;;17.95;7.72;;;5.80;87.70;;;;;;9182079;19;19926;-69
2022/11/22 02:41:50;;;;;;;15.95;7.15;;;5.80;87.60;;;;;;9180462;19;20029;-69
2022/11/22 02:44:54;;;;;;;15.63;6.97;;;5.80;87.60;;;;;;9183496;19;20010;-69
2022/11/22 02:48:06;;;;;;;16.73;7.13;;;5.80;87.60;;;;;;9182448;19;20022;-69
2022/11/22 02:51:15;;;;;;;15.27;7.68;;;5.80;87.70;;;;;;9182492;19;20018;-69
2022/11/22 02:54:19;;;;;;;13.60;6.85;;;5.90;87.80;;;;;;9175458;19;20030;-69
2022/11/22 02:57:25;;;;;;;16.02;6.95;;;5.90;87.70;;;;;;9181638;19;20045;-69
2022/11/22 03:00:29;;;;;;;14.43;6.15;;;5.90;87.80;;;;;;9181107;19;20344;-70
2022/11/22 03:03:33;;;;;;;17.63;7.00;;;5.90;87.80;;;;;;9181734;19;20018;-69
2022/11/22 03:06:37;;;;;;;15.18;6.43;;;5.90;87.80;;;;;;9180202;19;20694;-69
2022/11/22 03:09:41;;;;;;;16.02;7.38;;;5.90;87.80;;;;;;9182379;19;20022;-69
2022/11/22 03:12:46;;;;;;;10.25;6.60;;;5.90;87.70;;;;;;9181683;19;20035;-70
2022/11/22 03:15:50;;;;;;;17.48;7.03;;;5.90;87.80;;;;;;9181382;19;20022;-69
2022/11/22 03:18:54;;;;;;;14.48;7.07;;;6.00;87.80;;;;;;9181437;19;20367;-70
2022/11/22 03:21:58;;;;;;;13.18;6.50;;;6.00;87.90;;;;;;9181370;19;20045;-70
2022/11/22 03:25:01;;;;;;;20.67;6.78;;;6.00;87.80;;;;;;9182503;19;20046;-70
2022/11/22 03:28:07;;;;;;;13.30;6.28;;;6.00;87.80;;;;;;9182043;19;20025;-69
2022/11/22 03:31:11;;;;;;;17.00;6.38;;;6.00;87.80;;;;;;9181293;19;20019;-69
2022/11/22 03:34:15;;;;;;;12.10;6.18;;;6.00;87.90;;;;;;9180393;19;20035;-69
2022/11/22 03:37:19;;;;;;;11.43;6.20;;;6.10;87.90;;;;;;9175673;19;20018;-68
2022/11/22 03:40:22;;;;;;;15.18;5.70;;;6.10;87.90;;;;;;9179174;19;20077;-69
2022/11/22 03:43:28;;;;;;;13.43;5.95;;;6.10;87.90;;;;;;9178869;19;20022;-69
2022/11/22 03:46:32;;;;;;;18.23;5.60;;;6.10;87.90;;;;;;9180625;19;20781;-69
2022/11/22 03:49:36;;;;;;;12.90;5.57;;;6.10;87.90;;;;;;9180301;19;20038;-70
2022/11/22 03:52:39;;;;;;;9.82;5.45;;;6.10;87.90;;;;;;9177068;19;20036;-69
2022/11/22 03:55:43;;;;;;;12.73;5.40;;;6.20;88.00;;;;;;9172556;19;20010;-70
2022/11/22 03:58:49;;;;;;;17.15;5.50;;;6.20;88.00;;;;;;9180690;19;20018;-69
2022/11/22 04:01:52;;;;;;;11.90;5.45;;;6.20;88.00;;;;;;9177971;19;20015;-69
2022/11/22 04:04:56;;;;;;;9.07;4.68;;;6.20;88.00;;;;;;9180953;19;20035;-69
2022/11/22 04:08:00;;;;;;;14.70;5.28;;;6.20;88.00;;;;;;9180982;19;20023;-69
2022/11/22 04:11:04;;;;;;;13.18;5.97;;;6.20;88.10;;;;;;9180648;19;20090;-70
2022/11/22 04:17:46;;;;;;;19.00;6.50;;;6.30;88.20;;;;;;9179731;19;20057;-69
2022/11/22 04:27:39;;;;;;;13.50;5.70;;;6.40;88.20;;;;;;9177928;19;20490;-70
2022/11/22 04:34:02;;;;;;;13.43;5.35;;;6.40;88.30;;;;;;9178537;19;20015;-69
2022/11/22 04:37:06;;;;;;;14.93;5.78;;;6.40;88.20;;;;;;9177133;19;20045;-70
2022/11/22 04:40:11;;;;;;;19.50;5.95;;;6.50;88.30;;;;;;9179101;19;20007;-69
2022/11/22 04:46:38;;;;;;;12.38;5.57;;;6.50;88.30;;;;;;9178615;19;20019;-70
2022/11/22 04:49:42;;;;;;;20.83;5.97;;;6.50;88.30;;;;;;9179636;19;20023;-69
2022/11/22 04:52:52;;;;;;;16.80;5.78;;;6.50;88.30;;;;;;9175441;19;20114;-70
2022/11/22 04:55:57;;;;;;;13.85;5.53;;;6.50;88.40;;;;;;9170147;19;20456;-69
2022/11/22 04:59:00;;;;;;;20.55;6.05;;;6.60;88.40;;;;;;9179983;19;20014;-70
2022/11/22 05:02:06;;;;;;;14.82;6.10;;;6.60;88.40;;;;;;9177947;19;20014;-69
2022/11/22 05:05:11;;;;;;;16.90;6.03;;;6.60;88.40;;;;;;9178886;19;20023;-70
2022/11/22 05:08:15;;;;;;;20.80;6.32;;;6.60;88.40;;;;;;9178144;19;20022;-70
2022/11/22 05:11:18;;;;;;;;;;;6.70;88.50;;;;;;9175794;19;20018;-69
2022/11/22 05:14:22;;;;;;;24.85;6.97;;;6.70;88.50;;;;;;9177184;19;19926;-70
2022/11/22 05:17:28;;;;;;;21.33;6.28;;;6.70;88.30;;;;;;9175472;19;20365;-69
2022/11/22 05:20:31;;;;;;;19.65;5.72;;;6.70;88.40;;;;;;9176206;19;20048;-70
2022/11/22 05:26:52;;;;;;;13.02;5.30;;;6.70;88.40;;;;;;9177621;19;20023;-70
2022/11/22 05:29:56;;;;;;;24.98;6.45;;;6.80;88.50;;;;;;9174024;19;20022;-70
2022/11/22 05:33:01;;;;;;;24.02;6.07;;;6.80;88.50;;;;;;9177725;19;20074;-70
2022/11/22 05:36:06;;;;;;;19.67;6.65;;;6.80;88.50;;;;;;9177554;19;20035;-69
2022/11/22 05:39:10;;;;;;;15.40;5.70;;;6.80;88.50;;;;;;9177540;19;20039;-69
2022/11/22 05:42:13;;;;;;;18.20;5.25;;;6.80;88.50;;;;;;9175078;19;20022;-70
2022/11/22 05:45:17;;;;;;;15.68;5.68;;;6.80;88.60;;;;;;9172914;19;20048;-69
2022/11/22 05:48:23;;;;;;;;;;;6.80;88.70;;;;;;9176925;19;20728;-70
2022/11/22 05:51:29;;;;;;;15.60;4.63;;;6.80;88.60;;;;;;9175470;19;19929;-69
2022/11/22 05:54:37;;;;;;;16.88;4.88;;;6.90;88.50;;;;;;9170105;19;20030;-69
2022/11/22 05:57:41;;;;;;;15.98;4.70;;;6.90;88.50;;;;;;9176475;19;21025;-70
2022/11/22 06:00:45;;;;;;;13.90;4.25;;;6.90;88.60;;;;;;9190285;19;20514;-69
2022/11/22 06:03:51;;;;;;;16.17;4.47;;;6.90;88.60;;;;;;9191717;19;20555;-69
2022/11/22 06:06:56;;;;;;;14.00;3.38;;;6.90;88.60;;;;;;9193260;19;20026;-70
2022/11/22 06:10:00;;;;;;;14.77;3.92;;;6.90;88.60;;;;;;9192595;19;20018;-69
2022/11/22 06:13:03;;;;;;;18.73;4.05;;;6.90;88.50;;;;;;9192325;19;20018;-70
2022/11/22 06:16:09;;;;;;;15.68;3.05;;;6.80;88.50;;;;;;9187881;19;20142;-70
2022/11/22 06:19:14;;;;;;;12.65;4.50;;;6.80;88.50;;;;;;9191776;19;20026;-70
2022/11/22 06:22:18;;;;;;;15.15;3.80;;;6.80;88.40;;;;;;9192753;19;20026;-69
2022/11/22 06:25:22;;;;;;;10.88;3.17;;;6.80;88.40;;;;;;9190309;19;20522;-69
2022/11/22 06:28:26;;;;;;;11.40;3.30;;;6.80;88.50;;;;;;9192959;19;20014;-69
2022/11/22 06:31:30;;;;;;;;;;;6.80;88.50;;;;;;9194163;19;20025;-69
2022/11/22 06:34:35;;;;;;;13.52;3.00;;;6.70;88.50;;;;;;9183452;19;19926;-69
2022/11/22 06:37:39;;;;;;;23.05;4.43;;;6.70;88.40;;;;;;9183160;19;20501;-69
2022/11/22 06:40:43;;;;;;;14.45;3.13;;;6.70;88.40;;;;;;9185455;19;20018;-69
2022/11/22 06:43:48;;;;;;;13.02;2.47;;;6.70;88.40;;;;;;9185704;19;20018;-69
2022/11/22 06:46:53;;;;;;;15.30;3.47;;;6.70;88.40;;;;;;9184184;19;20063;-69
2022/11/22 06:49:58;;;;;;;10.27;2.72;;;6.70;88.40;;;;;;9185890;19;20018;-69
2022/11/22 06:53:02;;;;;;;16.00;3.60;;;6.60;88.40;;;;;;9188341;19;20013;-70
2022/11/22 06:56:07;;;;;;;12.52;2.20;;;6.60;88.40;;;;;;9186848;19;20578;-71
2022/11/22 06:59:12;;;;;;;13.80;2.50;;;6.60;88.40;;;;;;9190310;19;20055;-71
2022/11/22 07:02:15;;;;;;;9.75;2.08;;;6.60;88.40;;;;;;9189287;19;20048;-70
2022/11/22 07:05:21;;;;;;;14.07;2.67;;;6.50;88.30;;;;;;9191489;19;20412;-71
2022/11/22 07:08:29;;;;;;;17.98;2.80;;;6.50;88.30;;;;;;9191058;19;20011;-71
2022/11/22 07:11:33;;;;;;;25.50;3.33;;;6.50;88.40;;;;;;9183317;19;20498;-71
2022/11/22 07:14:37;;;;;;;12.93;2.60;;;6.50;88.40;;;;;;9179598;19;20022;-71
2022/11/22 07:17:41;;;;;;;20.10;2.65;;;6.50;88.40;;;;;;9180492;19;20015;-71
2022/11/22 07:20:47;;;;;;;12.23;1.75;;;6.50;88.50;;;;;;9179912;19;20026;-71
2022/11/22 07:23:52;;;;;;;19.50;2.53;;;6.40;88.40;;;;;;9182430;19;20043;-70
2022/11/22 07:26:56;;;;;;;13.68;2.42;;;6.40;88.40;;;;;;9179951;19;20014;-71
2022/11/22 07:30:00;;;;;;;14.82;3.03;;;6.40;88.40;;;;;;9179442;19;20834;-71
2022/11/22 07:33:04;;;;;;;23.52;3.20;;;6.40;88.40;;;;;;9181535;19;20014;-71
2022/11/22 07:36:10;;;;;;;;;;;6.30;88.40;;;;;;9176208;19;20014;-70
2022/11/22 07:39:14;;;;;;;15.13;3.25;;;6.30;88.40;;;;;;9179181;19;19915;-70
2022/11/22 07:42:18;;;;;;;21.30;3.55;;;6.30;88.30;;;;;;9181350;19;20018;-71
2022/11/22 07:45:30;;;;;;;22.05;2.65;;;6.30;88.30;;;;;;9178911;19;20017;-71
2022/11/22 07:48:34;;;;;;;19.33;2.20;;;6.30;88.30;;;;;;9180848;19;20074;-70
2022/11/22 07:51:40;;;;;;;17.98;4.57;;;6.30;88.40;;;;;;9179496;19;20026;-70
2022/11/22 07:54:43;;;;;;;12.15;2.35;;;6.20;88.30;;;;;;9173781;19;20377;-71
2022/11/22 07:57:49;;;;;;;19.50;2.67;;;6.20;88.30;;;;;;9180405;19;20049;-70
2022/11/22 08:00:53;;;;;;;12.77;2.50;;;6.20;88.30;;;;;;9180118;19;20011;-70
2022/11/22 08:03:57;;;;;;;12.98;2.53;;;6.20;88.40;;;;;;9180489;19;20011;-71
2022/11/22 08:07:03;;;;;;;18.40;2.65;;;6.20;88.40;;;;;;9179276;19;20041;-70
2022/11/22 08:10:09;;;;;;;14.95;2.80;;;6.20;88.40;;;;;;9178589;19;20007;-70
2022/11/22 08:13:12;;;;;;;15.02;3.20;;;6.10;88.40;;;;;;9179113;19;20015;-71
2022/11/22 08:16:17;;;;;;;16.08;2.58;;;6.10;88.40;;;;;;9172398;19;20037;-70
2022/11/22 08:19:21;;;;;;;21.48;3.05;;;6.10;88.40;;;;;;9178849;19;20016;-71
2022/11/22 08:22:27;;;;;;;20.75;4.97;;;6.10;88.40;;;;;;9179210;19;20021;-69
2022/11/22 08:25:31;;;;;;;12.80;3.38;;;6.10;88.40;;;;;;9178012;19;20010;-71
2022/11/22 08:28:35;;;;;;;16.38;3.30;;;6.10;88.40;;;;;;9179362;19;20014;-70
2022/11/22 08:31:39;;;;;;;11.65;2.35;;;6.10;88.40;;;;;;9174842;19;20022;-70
2022/11/22 08:34:42;;;;;;;10.20;2.03;;;6.10;88.50;;;;;;9172109;19;20482;-70
2022/11/22 08:37:56;;;;;;;16.40;3.17;;;6.10;88.50;;;;;;9170497;19;20025;-70
2022/11/22 08:41:00;;;;;;;22.77;2.90;;;6.10;88.50;;;;;;9171771;19;20078;-70
2022/11/22 08:44:04;;;;;;;15.18;3.13;;;6.10;88.50;;;;;;9171490;19;20344;-70
2022/11/22 08:47:07;;;;;;;15.80;2.85;;;6.10;88.60;;;;;;9173780;19;20058;-70
2022/11/22 08:50:11;;;;;;;15.07;3.30;;;6.20;88.70;;;;;;9173534;19;20014;-71
2022/11/22 08:53:17;;;;;;;26.23;3.28;;;6.10;88.60;;;;;;9162301;19;20089;-70
2022/11/22 08:56:21;;;;;;;12.88;2.47;;;6.20;88.60;;;;;;9174920;19;20581;-71
2022/11/22 08:59:25;;;;;;;;;;;6.20;88.70;;;;;;9175137;19;20015;-71
2022/11/22 09:02:28;;;;;;;20.85;3.95;;;6.20;88.70;;;;;;9177414;19;19933;-70
2022/11/22 09:05:33;;;;;;;11.32;2.35;;;6.20;88.60;;;;;;9172237;19;20022;-68
2022/11/22 09:08:39;;;;;;;11.38;2.72;;;6.30;88.70;;;;;;9175312;19;20094;-68
2022/11/22 09:11:47;;;;;;;9.82;2.92;;;6.30;88.80;;;;;;9166206;19;20078;-68
2022/11/22 09:14:51;;;;;;;14.30;2.53;;;6.30;88.70;;;;;;9167392;19;20717;-69
2022/11/22 09:18:01;;;;;;;16.85;2.85;;;6.30;88.80;;;;;;9169230;19;20023;-68
2022/11/22 09:21:08;;;;;;;20.58;2.88;;;6.40;88.80;;;;;;9171173;19;20658;-69
2022/11/22 09:24:14;;;;;;;20.23;3.53;;;6.40;88.80;;;;;;9170485;19;20007;-68
2022/11/22 09:27:19;;;;;;;10.10;2.75;;;6.50;88.90;;;;;;9163092;19;20376;-68
2022/11/22 09:30:22;;;;;;;18.25;3.17;;;6.50;88.80;;;;;;9166647;19;20677;-69
2022/11/22 09:33:26;;;;;;;14.80;2.88;;;6.60;88.90;;;;;;9164999;19;20113;-69
2022/11/22 09:36:30;;;;;;;20.85;2.70;;;6.60;88.90;;;;;;9161315;19;20015;-69
2022/11/22 09:39:36;;;;;;;13.27;2.25;;;6.70;88.90;;;;;;9168673;19;20437;-69
2022/11/22 09:43:08;;;;;;;10.07;2.33;;;6.70;88.80;;;;;;9164353;19;20024;-68
2022/11/22 09:46:32;;;;;;;20.45;2.55;;;6.70;88.80;;;;;;9164680;19;20026;-68
2022/11/22 09:49:47;;;;;;;26.67;3.20;;;6.80;88.80;;;;;;9168258;19;20033;-68
2022/11/22 09:52:54;;;;;;;17.92;2.85;;;6.90;88.80;;;;;;9167487;19;20090;-69
2022/11/22 09:56:04;;;;;;;12.82;2.53;;;6.90;88.70;;;;;;9159761;19;20014;-68
2022/11/22 09:59:14;;;;;;;10.88;2.40;;;7.00;88.80;;;;;;9162288;19;20367;-69
2022/11/22 10:02:26;;;;;;;11.75;2.47;;;7.00;88.70;;;;;;9163886;19;20018;-69
2022/11/22 10:05:39;;;;;;;23.85;2.65;;;7.00;88.70;;;;;;9163880;19;20014;-68
2022/11/22 10:08:50;;;;;;;4.75;1.60;;;7.10;88.70;;;;;;9161529;19;20023;-68
2022/11/22 10:12:02;;;;;;;14.00;2.05;;;7.20;89.40;;;;;;9162179;19;20023;-68
2022/11/22 10:15:13;;;;;;;17.00;2.30;;;7.30;88.80;;;;;;9166668;19;20018;-68
2022/11/22 10:18:30;;;;;;;10.93;2.50;;;7.30;88.70;;;;;;9165776;19;20378;-68
2022/11/22 10:21:34;;;;;;;13.55;1.75;;;7.40;88.70;;;;;;9161697;19;20055;-68
2022/11/22 10:24:38;;;;;;;15.20;5.45;;;7.40;88.80;;;;;;9168031;19;20014;-68
2022/11/22 10:27:45;;;;;;;18.15;2.65;;;7.60;92.30;;;;;;9163205;19;20050;-68
2022/11/22 10:30:57;;;;;;;18.80;2.97;;;7.70;91.00;;;;;;9164146;19;20503;-68
2022/11/22 10:34:10;;;;;;;11.52;2.90;;;7.70;90.70;;;;;;9167330;19;20394;-68
2022/11/22 10:37:22;;;;;;;9.13;1.55;;;7.80;90.60;;;;;;9159602;19;20025;-68
2022/11/22 10:40:37;;;;;;;20.20;1.90;;;7.80;90.10;;;;;;9163948;19;20465;-68
2022/11/22 10:43:51;;;;;;;9.23;2.03;;;7.90;89.00;;;;;;9170142;19;20496;-68
2022/11/22 10:47:02;;;;;;;11.87;1.70;;;7.90;99.90;;;;;;9181545;19;20019;-68
2022/11/22 10:50:12;;;;;;;15.52;2.35;;;8.00;92.10;;;;;;9179715;19;20029;-68
2022/11/22 10:53:32;;;;;;;12.63;2.15;;;8.10;94.00;;;;;;9170790;19;20014;-68
2022/11/22 10:56:45;;;;;;;12.50;2.40;;;8.10;89.70;;;;;;9176857;19;20022;-68
2022/11/22 11:00:01;;;;;;;13.32;2.78;;;8.10;89.60;;;;;;9176440;19;20135;-68
2022/11/22 11:03:13;;;;;;;11.35;1.70;;;8.20;88.50;;;;;;9173511;19;20042;-68
2022/11/22 11:06:22;;;;;;;11.70;2.63;;;8.20;88.10;;;;;;9172535;19;20030;-68
2022/11/22 11:09:48;;;;;;;7.28;1.80;;;8.20;87.90;;;;;;9176437;19;20047;-68
2022/11/22 11:13:21;;;;;;;11.60;2.53;;;8.30;87.90;;;;;;9170924;19;20014;-68
2022/11/22 11:16:37;;;;;;;8.20;1.40;;;8.30;87.80;;;;;;9170666;19;20025;-68
2022/11/22 11:19:43;;;;;;;9.13;2.05;;;8.30;87.60;;;;;;9174068;19;20780;-68
2022/11/22 11:22:47;;;;;;;12.25;2.40;;;8.40;87.60;;;;;;9171486;19;21778;-68
2022/11/22 11:26:22;;;;;;;12.30;1.95;;;8.40;87.60;;;;;;9168979;19;20045;-68
2022/11/22 11:29:35;;;;;;;11.07;2.00;;;8.40;87.50;;;;;;9171410;19;20029;-68
2022/11/22 11:32:53;;;;;;;7.40;1.63;;;8.40;87.50;;;;;;9165337;19;20014;-68
2022/11/22 11:36:02;;;;;;;8.48;2.45;;;8.50;87.40;;;;;;9160446;19;20547;-68
2022/11/22 11:39:20;;;;;;;8.00;1.77;;;8.50;87.40;;;;;;9168004;19;20026;-67
2022/11/22 11:42:29;;;;;;;10.70;1.60;;;8.60;87.30;;;;;;9169296;19;20405;-68
2022/11/22 11:45:33;;;;;;;4.05;1.70;;;8.60;87.20;;;;;;9167025;19;20090;-67
2022/11/22 11:48:40;;;;;;;10.02;1.70;;;8.60;87.20;;;;;;9169462;19;20018;-68
2022/11/22 11:51:45;;;;;;;7.53;1.75;;;8.60;87.10;;;;;;9172838;19;20022;-68
2022/11/22 11:54:51;;;;;;;7.47;2.00;;;8.60;87.00;;;;;;9163355;19;20038;-68
2022/11/22 11:57:55;;;;;;;5.07;1.20;;;8.60;86.90;;;;;;9167375;19;20021;-68
2022/11/22 12:00:58;;;;;;;15.05;1.73;;;8.60;86.90;;;;;;9166171;19;20018;-68
2022/11/22 12:04:07;;;;;;;10.30;1.55;;;8.70;86.90;;;;;;9169212;19;20015;-68
2022/11/22 12:07:19;;;;;;;7.90;1.67;;;8.70;86.80;;;;;;9167725;19;20569;-67
2022/11/22 12:10:38;;;;;;;7.75;1.40;;;8.70;86.70;;;;;;9172158;19;20018;-68
2022/11/22 12:13:45;;;;;;;8.25;1.45;;;8.70;86.60;;;;;;9177206;19;20044;-68
2022/11/22 12:17:19;;;;;;;9.02;1.30;;;8.70;86.60;;;;;;9171366;19;20015;-68
2022/11/22 12:20:35;;;;;;;6.30;2.20;;;8.70;86.50;;;;;;9168852;19;20014;-67
2022/11/22 12:23:46;;;;;;;6.90;1.50;;;8.70;86.50;;;;;;9176240;19;20035;-67
2022/11/22 12:26:55;;;;;;;6.97;1.55;;;8.70;86.50;;;;;;9177447;19;20082;-68
2022/11/22 12:29:59;;;;;;;16.63;4.05;;;8.70;86.50;;;;;;9177267;19;20022;-67
2022/11/22 12:33:04;;;;;;;;;;;8.70;86.40;;;;;;9178287;19;20014;-67
2022/11/22 12:36:15;;;;;;;15.02;2.00;;;8.70;86.30;;;;;;9174973;19;19947;-68
2022/11/22 12:39:23;;;;;;;7.57;1.80;;;8.70;86.40;;;;;;9176841;19;20014;-68
2022/11/22 12:42:33;;;;;;;5.28;1.60;;;8.70;86.30;;;;;;9176396;19;20018;-67
2022/11/22 12:45:41;;;;;;;11.35;1.70;;;8.70;86.30;;;;;;9178539;19;20018;-67
2022/11/22 12:48:49;;;;;;;5.07;1.20;;;8.70;86.20;;;;;;9178611;19;20479;-67
2022/11/22 12:51:58;;;;;;;6.38;1.40;;;8.60;86.10;;;;;;9174370;19;20011;-67
2022/11/22 12:55:06;;;;;;;4.43;1.05;;;8.70;86.10;;;;;;9158437;19;20122;-67
2022/11/22 12:58:20;;;;;;;4.40;1.38;;;8.60;86.00;;;;;;9165032;19;20026;-67
2022/11/22 13:01:29;;;;;;;3.40;1.25;;;8.60;86.00;;;;;;9163522;19;20022;-67
2022/11/22 13:04:42;;;;;;;3.67;1.58;;;8.70;86.00;;;;;;9167507;19;20784;-67
2022/11/22 13:07:59;;;;;;;3.63;1.20;;;8.70;86.00;;;;;;9163858;19;20018;-67
2022/11/22 13:11:09;;;;;;;12.90;2.05;;;8.70;85.90;;;;;;9161992;19;20034;-67
2022/11/22 13:14:18;;;;;;;5.72;1.52;;;8.60;85.90;;;;;;9164014;19;20022;-67
2022/11/22 13:17:27;;;;;;;1.95;1.40;;;8.70;85.90;;;;;;9164159;19;20022;-67
2022/11/22 13:20:36;;;;;;;5.43;1.20;;;8.70;85.90;;;;;;9167996;19;20029;-67
2022/11/22 13:24:04;;;;;;;3.25;1.40;;;8.70;85.80;;;;;;9170685;19;20120;-67
2022/11/22 13:27:16;;;;;;;1.77;1.35;;;8.70;85.70;;;;;;9169722;19;20029;-67
2022/11/22 13:30:22;;;;;;;7.25;1.17;;;8.70;85.70;;;;;;9164492;19;20841;-67
2022/11/22 13:33:27;;;;;;;9.18;2.08;;;8.70;85.70;;;;;;9171290;19;20018;-67
2022/11/22 13:36:40;;;;;;;7.70;1.60;;;8.70;85.70;;;;;;9163849;19;20417;-67
2022/11/22 13:39:48;;;;;;;7.35;1.88;;;8.60;85.60;;;;;;9165318;19;20053;-67
2022/11/22 13:43:24;;;;;;;5.40;2.65;;;8.60;85.60;;;;;;9162040;19;20078;-67
2022/11/22 13:47:02;;;;;;;13.95;1.98;;;8.60;85.40;;;;;;9160853;19;20029;-67
2022/11/22 13:50:35;;;;;;;5.43;1.73;;;8.60;85.40;;;;;;9169722;19;20018;-67
2022/11/22 13:53:41;;;;;;;5.32;1.80;;;8.60;85.40;;;;;;9158641;19;20019;-67
2022/11/22 13:57:00;;;;;;;8.02;1.55;;;8.60;85.50;;;;;;9160096;19;20018;-67
2022/11/22 14:00:47;;;;;;;8.77;1.70;;;8.60;85.40;;;;;;9161204;19;20029;-67
2022/11/22 14:03:51;;;;;;;10.07;1.92;;;8.60;85.40;;;;;;9165800;19;20018;-67
2022/11/22 14:06:58;;;;;;;7.35;1.55;;;8.60;85.40;;;;;;9164470;19;20022;-67
2022/11/22 14:10:23;;;;;;;14.45;1.63;;;8.60;85.40;;;;;;9163195;19;20025;-67
2022/11/22 14:13:42;;;;;;;8.18;1.70;;;8.60;85.40;;;;;;9167995;19;20031;-68
2022/11/22 14:16:58;;;;;;;6.72;1.90;;;8.60;85.30;;;;;;9163774;19;20020;-67
2022/11/22 14:20:11;;;;;;;6.03;2.00;;;8.60;85.30;;;;;;9169754;19;20052;-67
2022/11/22 14:23:26;;;;;;;13.30;2.00;;;8.60;85.40;;;;;;9174039;19;20022;-67
2022/11/22 14:26:40;;;;;;;8.30;1.95;;;8.60;85.30;;;;;;9170233;19;20022;-67
2022/11/22 14:30:15;;;;;;;11.90;1.90;;;8.60;85.30;;;;;;9173206;19;20018;-67
2022/11/22 14:33:23;;;;;;;7.47;2.10;;;8.50;85.20;;;;;;9174736;19;20018;-67
2022/11/22 14:36:27;;;;;;;12.57;1.88;;;8.60;85.30;;;;;;9173064;19;20030;-67
2022/11/22 14:40:18;;;;;;;5.28;1.83;;;8.50;85.20;;;;;;9174807;19;20053;-67
2022/11/22 14:43:30;;;;;;;7.68;1.60;;;8.50;85.20;;;;;;9169476;19;20022;-67
2022/11/22 14:46:42;;;;;;;5.70;1.95;;;8.50;85.20;;;;;;9175203;19;20081;-66
2022/11/22 14:50:03;;;;;;;11.25;2.85;;;8.50;85.20;;;;;;9174234;19;20906;-67
2022/11/22 14:53:33;;;;;;;8.82;1.60;;;8.50;85.30;;;;;;9165866;19;20022;-66
2022/11/22 14:56:37;;;;;;;11.30;2.47;;;8.50;85.30;;;;;;9171652;19;20019;-67
2022/11/22 15:00:16;;;;;;;6.97;1.75;;;8.50;85.30;;;;;;9169626;19;20110;-67
2022/11/22 15:03:48;;;;;;;5.30;1.45;;;8.50;85.80;;;;;;9176207;19;20156;-67
2022/11/22 15:07:06;;;;;;;9.13;1.60;;;8.50;85.20;;;;;;9172117;19;20590;-67
2022/11/22 15:10:52;;;;;;;6.95;1.92;;;8.40;85.20;;;;;;9176027;19;20078;-67
2022/11/22 15:14:17;;;;;;;8.20;1.48;;;8.40;85.20;;;;;;9172087;19;20022;-67
2022/11/22 15:17:24;;;;;;;9.80;1.60;;;8.40;85.20;;;;;;9170232;19;20026;-67
2022/11/22 15:20:50;;;;;;;4.65;1.48;;;8.40;85.30;;;;;;9173752;19;20028;-67
2022/11/22 15:24:30;;;;;;;8.63;1.60;;;8.40;85.30;;;;;;9174352;19;20010;-67
2022/11/22 15:27:54;;;;;;;7.80;1.80;;;8.40;85.20;;;;;;9174865;19;20126;-66
2022/11/22 15:31:22;;;;;;;8.50;1.40;;;8.30;85.20;;;;;;9169364;19;20014;-67
2022/11/22 15:34:49;;;;;;;10.55;2.53;;;8.30;85.20;;;;;;9171759;19;20021;-67
2022/11/22 15:38:14;;;;;;;6.03;1.58;;;8.40;85.20;;;;;;9172874;19;20018;-67
2022/11/22 15:41:38;;;;;;;6.63;2.10;;;8.30;85.20;;;;;;9170994;19;20018;-67
2022/11/22 15:45:02;;;;;;;7.68;2.30;;;8.30;85.20;;;;;;9177087;19;20404;-67
2022/11/22 15:48:31;;;;;;;4.70;2.22;;;8.30;85.20;;;;;;9177915;19;20019;-67
2022/11/22 15:51:58;;;;;;;6.63;1.75;;;8.30;85.20;;;;;;9179894;19;20014;-67
2022/11/22 15:55:25;;;;;;;5.55;1.85;;;8.30;85.10;;;;;;9175253;19;20020;-67
2022/11/22 15:58:50;;;;;;;6.93;1.63;;;8.30;85.10;;;;;;9178347;19;20089;-67
2022/11/22 16:01:56;;;;;;;8.85;1.83;;;8.30;85.10;;;;;;9179586;19;20014;-66
2022/11/22 16:05:03;;;;;;;2.55;1.40;;;8.30;85.10;;;;;;9181399;19;20019;-67
2022/11/22 16:08:27;;;;;;;6.60;1.60;;;8.30;85.10;;;;;;9175660;19;20041;-67
2022/11/22 16:11:39;;;;;;;7.00;1.50;;;8.30;85.10;;;;;;9174972;19;20041;-67
2022/11/22 16:14:48;;;;;;;5.65;1.92;;;8.30;85.10;;;;;;9179304;19;20022;-67
2022/11/22 16:17:55;;;;;;;10.23;1.95;;;8.30;85.10;;;;;;9180620;19;20022;-67
2022/11/22 16:21:05;;;;;;;6.82;2.40;;;8.20;85.00;;;;;;9179596;19;20026;-67
2022/11/22 16:24:16;;;;;;;6.15;1.73;;;8.20;85.00;;;;;;9178258;19;20026;-67
2022/11/22 16:27:21;;;;;;;3.75;1.40;;;8.20;85.10;;;;;;9179076;19;20101;-67
2022/11/22 16:30:25;;;;;;;6.82;2.25;;;8.20;85.00;;;;;;9179015;19;20038;-67
2022/11/22 16:33:30;;;;;;;5.32;1.88;;;8.20;85.10;;;;;;9174940;19;20019;-67
2022/11/22 16:36:34;;;;;;;6.28;1.92;;;8.20;85.10;;;;;;9166155;19;20018;-67
2022/11/22 16:39:37;;;;;;;;;;;8.20;85.30;;;;;;9178903;19;20475;-67
2022/11/22 16:42:43;;;;;;;8.07;2.10;;;8.20;85.00;;;;;;9176275;19;19927;-67
2022/11/22 16:45:47;;;;;;;4.00;1.83;;;8.20;85.10;;;;;;9179702;19;20459;-67
2022/11/22 16:48:51;;;;;;;9.02;1.90;;;8.20;85.00;;;;;;9177820;19;20035;-67
2022/11/22 16:51:55;;;;;;;6.40;1.80;;;8.20;85.00;;;;;;9175517;19;20014;-67